Decoded Metar for EIME (CASEMENT in IRELAND) (IATA:N/A) | Meteo·Mobile Aviation Weather
aviador You're here:

EIME Decoded Metar

CASEMENT in IRELAND
Report Time2018-10-20 12:00:00
UTC Time2018-10-20 12:32:17
Flight Rules vfr VFR
Wind240° at 14 kt
W.Decomp.*RWY 23: 13.5 kt HW 3.6 kt RCW
RWY 29: 9.9 kt HW 9.9 kt LCW
W.Rank240° ranks 4
Current wind is above 240° avg. (11.6)
Visibility9999 m
Phenomena:N/A
Clouds:Few 018 Hf
Scattered 200 Hf
Expected CloudBase > 2,000 ft AGL from Temp-Dew spread
CeilingNone
Temp16°C (ISA +2)
Dew Point11°C (72% RH)
AAT11.3°C
QNH1028 hPa
Density Alt167 ft
Elevation305 ft
Report Wrong Elevation
Raw Report
METAR EIME 201200Z 24014KT 9999 FEW018 SCT200 16/11 Q1028=

Extra information for EIME:More info

Metar Taf Metar & Taf Last 4 Metars F.Rules Stats Wind Profile Meteogram Temp Stats Airport Information Weather charts Add Link Nearby VenuesMetar ALERT Operation Metar Decoded Social comments